createdAt,value
2022-11-20T00:01:25.980Z,17.07
2022-11-20T00:03:54.695Z,17.23
2022-11-20T00:06:22.843Z,17.58
2022-11-20T00:08:50.590Z,18.09
2022-11-20T00:11:23.253Z,17.63
2022-11-20T00:13:53.322Z,17.52
2022-11-20T00:16:23.251Z,17.97
2022-11-20T00:18:50.553Z,17.16
2022-11-20T00:21:22.891Z,17.17
2022-11-20T00:23:51.201Z,16.95
2022-11-20T00:26:19.986Z,16.44
2022-11-20T00:28:55.397Z,16.44
2022-11-20T00:31:23.016Z,16.23
2022-11-20T00:33:50.344Z,16.35
2022-11-20T00:36:22.461Z,16.40
2022-11-20T00:38:53.643Z,16.59
2022-11-20T00:41:20.953Z,16.47
2022-11-20T00:43:47.895Z,16.49
2022-11-20T00:46:15.908Z,16.70
2022-11-20T00:48:43.203Z,17.10
2022-11-20T00:51:12.122Z,17.36
2022-11-20T00:53:38.980Z,17.28
2022-11-20T00:56:08.809Z,17.76
2022-11-20T00:58:38.069Z,18.22
2022-11-20T01:01:06.621Z,18.17
2022-11-20T01:03:34.748Z,18.44
2022-11-20T01:06:08.887Z,18.64
2022-11-20T01:08:36.696Z,18.37
2022-11-20T01:11:15.533Z,18.57
2022-11-20T01:13:44.241Z,18.57
2022-11-20T01:16:20.601Z,18.66
2022-11-20T01:18:50.224Z,18.68
2022-11-20T01:21:22.604Z,18.87
2022-11-20T01:23:50.342Z,19.03
2022-11-20T01:26:23.382Z,19.25
2022-11-20T01:28:50.960Z,19.10
2022-11-20T01:31:23.443Z,18.90
2022-11-20T01:33:52.620Z,18.96
2022-11-20T01:36:21.182Z,18.65
2022-11-20T01:38:48.216Z,18.31
2022-11-20T01:41:36.714Z,18.25
2022-11-20T01:44:05.229Z,18.01
2022-11-20T01:46:34.805Z,18.46
2022-11-20T01:49:09.026Z,18.73
2022-11-20T01:51:56.897Z,18.61
2022-11-20T01:54:31.601Z,18.83
2022-11-20T01:57:01.709Z,19.02
2022-11-20T01:59:30.768Z,18.86
2022-11-20T02:01:58.358Z,19.04
2022-11-20T02:04:25.912Z,18.62
2022-11-20T02:07:03.662Z,18.76
2022-11-20T02:09:30.645Z,19.39
2022-11-20T02:11:58.805Z,18.97
2022-11-20T02:14:26.581Z,19.32
2022-11-20T02:16:55.493Z,19.61
2022-11-20T02:19:29.447Z,19.12
2022-11-20T02:22:03.890Z,19.52
2022-11-20T02:24:31.262Z,19.60
2022-11-20T02:27:13.434Z,19.49
2022-11-20T02:29:54.114Z,19.51
2022-11-20T02:32:22.392Z,19.48
2022-11-20T02:34:49.547Z,19.21
2022-11-20T02:37:17.193Z,19.22
2022-11-20T02:39:47.126Z,19.92
2022-11-20T02:42:14.314Z,19.71
2022-11-20T02:44:41.259Z,20.09
2022-11-20T02:47:08.594Z,19.88
2022-11-20T02:49:35.785Z,19.80
2022-11-20T02:52:02.709Z,19.95
2022-11-20T02:54:29.612Z,20.18
2022-11-20T02:56:56.512Z,19.80
2022-11-20T02:59:23.664Z,19.47
2022-11-20T03:01:50.736Z,19.16
2022-11-20T03:04:17.689Z,19.18
2022-11-20T03:06:44.749Z,19.44
2022-11-20T03:09:11.690Z,19.78
2022-11-20T03:11:38.562Z,19.99
2022-11-20T03:14:06.072Z,20.16
2022-11-20T03:16:33.952Z,20.17
2022-11-20T03:19:01.261Z,19.72
2022-11-20T03:21:28.352Z,19.56
2022-11-20T03:23:55.718Z,19.44
2022-11-20T03:26:25.224Z,19.39
2022-11-20T03:28:57.819Z,19.60
2022-11-20T03:31:27.502Z,19.37
2022-11-20T03:33:54.602Z,19.53
2022-11-20T03:36:22.280Z,19.77
2022-11-20T03:38:50.101Z,19.88
2022-11-20T03:41:23.060Z,19.83
2022-11-20T03:43:58.391Z,19.95
2022-11-20T03:46:26.094Z,20.06
2022-11-20T03:48:53.320Z,19.85
2022-11-20T03:51:25.803Z,19.81
2022-11-20T03:53:55.365Z,20.00
2022-11-20T03:56:25.640Z,20.10
2022-11-20T03:58:52.551Z,20.08
2022-11-20T04:01:24.647Z,20.00
2022-11-20T04:03:54.244Z,19.88
2022-11-20T04:06:30.461Z,19.88
2022-11-20T04:08:58.923Z,19.88
2022-11-20T04:11:31.552Z,19.69
2022-11-20T04:14:00.874Z,19.36
2022-11-20T04:16:30.847Z,19.18
2022-11-20T04:19:01.886Z,18.97
2022-11-20T04:21:28.893Z,19.04
2022-11-20T04:23:56.680Z,19.00
2022-11-20T04:26:25.580Z,18.86
2022-11-20T04:28:52.704Z,18.97
2022-11-20T04:31:23.943Z,18.98
2022-11-20T04:33:51.232Z,18.79
2022-11-20T04:36:20.789Z,18.89
2022-11-20T04:38:51.351Z,18.80
2022-11-20T04:41:22.729Z,18.82
2022-11-20T04:43:59.825Z,18.87
2022-11-20T04:46:28.377Z,18.88
2022-11-20T04:48:55.658Z,18.87
2022-11-20T04:51:22.981Z,18.80
2022-11-20T04:53:50.171Z,18.43
2022-11-20T04:56:17.473Z,18.22
2022-11-20T04:58:44.383Z,18.15
2022-11-20T05:01:17.592Z,18.34
2022-11-20T05:03:45.264Z,18.41
2022-11-20T05:06:14.685Z,18.48
2022-11-20T05:08:42.270Z,18.56
2022-11-20T05:11:12.181Z,18.74
2022-11-20T05:13:39.551Z,18.83
2022-11-20T05:16:10.079Z,18.80
2022-11-20T05:18:38.154Z,19.08
2022-11-20T05:21:06.404Z,19.13
2022-11-20T05:23:34.792Z,19.14
2022-11-20T05:26:02.860Z,19.03
2022-11-20T05:28:30.923Z,19.07
2022-11-20T05:31:04.781Z,18.74
2022-11-20T05:33:31.693Z,18.76
2022-11-20T05:36:02.186Z,18.71
2022-11-20T05:38:29.026Z,18.76
2022-11-20T05:40:55.915Z,19.25
2022-11-20T05:43:22.766Z,19.04
2022-11-20T05:45:56.145Z,19.24
2022-11-20T05:48:23.102Z,19.10
2022-11-20T05:50:50.160Z,19.14
2022-11-20T05:53:17.112Z,18.94
2022-11-20T05:55:44.050Z,18.92
2022-11-20T05:58:11.066Z,19.03
2022-11-20T06:00:38.477Z,19.14
2022-11-20T06:03:05.503Z,19.19
2022-11-20T06:05:32.599Z,19.27
2022-11-20T06:08:01.924Z,19.57
2022-11-20T06:10:28.767Z,19.57
2022-11-20T06:12:59.058Z,19.69
2022-11-20T06:15:26.490Z,19.84
2022-11-20T06:17:56.702Z,19.99
2022-11-20T06:20:23.560Z,20.16
2022-11-20T06:22:50.438Z,19.95
2022-11-20T06:25:17.350Z,19.99
2022-11-20T06:27:44.192Z,19.72
2022-11-20T06:30:11.690Z,19.86
2022-11-20T06:32:38.549Z,19.81
2022-11-20T06:35:05.820Z,19.72
2022-11-20T06:37:32.695Z,20.30
2022-11-20T06:39:59.522Z,20.29
2022-11-20T06:42:26.445Z,20.39
2022-11-20T06:44:53.300Z,20.41
2022-11-20T06:47:20.167Z,20.28
2022-11-20T06:49:46.985Z,20.32
2022-11-20T06:52:13.974Z,20.80
2022-11-20T06:54:40.853Z,21.01
2022-11-20T06:57:07.703Z,21.21
2022-11-20T06:59:34.602Z,21.54
2022-11-20T07:02:01.570Z,21.24
2022-11-20T07:04:28.554Z,21.19
2022-11-20T07:06:55.490Z,21.06
2022-11-20T07:09:22.438Z,20.69
2022-11-20T07:11:49.400Z,20.72
2022-11-20T07:14:16.223Z,20.26
2022-11-20T07:16:43.057Z,20.61
2022-11-20T07:19:09.954Z,20.86
2022-11-20T07:21:37.123Z,20.97
2022-11-20T07:24:04.210Z,20.91
2022-11-20T07:26:31.131Z,21.41
2022-11-20T07:28:58.026Z,21.78
2022-11-20T07:31:24.954Z,21.98
2022-11-20T07:33:51.929Z,22.14
2022-11-20T07:36:18.830Z,22.64
2022-11-20T07:38:45.692Z,23.02
2022-11-20T07:41:12.588Z,24.11
2022-11-20T07:43:41.475Z,23.88
2022-11-20T07:46:08.675Z,23.62
2022-11-20T07:48:35.693Z,23.73
2022-11-20T07:51:02.781Z,23.98
2022-11-20T07:53:29.686Z,24.39
2022-11-20T07:56:00.269Z,24.24
2022-11-20T07:58:27.208Z,24.29
2022-11-20T08:00:54.187Z,24.47
2022-11-20T08:03:24.885Z,23.75
2022-11-20T08:05:52.634Z,24.07
2022-11-20T08:08:19.658Z,24.20
2022-11-20T08:10:46.954Z,23.91
2022-11-20T08:13:32.232Z,23.46
2022-11-20T08:15:59.102Z,23.61
2022-11-20T08:18:33.397Z,23.65
2022-11-20T08:21:05.212Z,23.80
2022-11-20T08:23:32.517Z,23.99
2022-11-20T08:25:59.434Z,23.65
2022-11-20T08:28:26.256Z,23.72
2022-11-20T08:31:00.027Z,23.10
2022-11-20T08:33:27.005Z,23.06
2022-11-20T08:35:53.948Z,23.19
2022-11-20T08:38:20.806Z,23.05
2022-11-20T08:41:07.653Z,23.21
2022-11-20T08:43:34.693Z,23.09
2022-11-20T08:46:01.739Z,23.05
2022-11-20T08:48:28.610Z,23.04
2022-11-20T08:53:25.371Z,23.25
2022-11-20T08:55:52.343Z,22.77
2022-11-20T08:58:19.251Z,22.73
2022-11-20T09:00:46.376Z,22.30
2022-11-20T09:03:14.403Z,21.88
2022-11-20T09:05:41.317Z,21.92
2022-11-20T09:08:08.204Z,22.37
2022-11-20T09:10:35.246Z,21.62
2022-11-20T09:13:02.638Z,21.51
2022-11-20T09:15:29.828Z,21.31
2022-11-20T09:17:59.509Z,21.71
2022-11-20T09:20:28.056Z,21.80
2022-11-20T09:22:54.903Z,22.23
2022-11-20T09:25:22.343Z,22.36
2022-11-20T09:27:49.340Z,22.26
2022-11-20T09:30:16.607Z,22.33
2022-11-20T09:32:44.179Z,22.27
2022-11-20T09:35:11.925Z,22.23
2022-11-20T09:37:39.125Z,22.04
2022-11-20T09:40:06.759Z,22.11
2022-11-20T09:42:36.445Z,21.91
2022-11-20T09:45:12.231Z,22.06
2022-11-20T09:48:00.744Z,22.20
2022-11-20T09:50:58.555Z,22.02
2022-11-20T09:53:41.988Z,22.31
2022-11-20T09:56:11.364Z,22.82
2022-11-20T09:58:51.568Z,22.67
2022-11-20T10:01:22.681Z,22.45
2022-11-20T10:04:05.397Z,22.96
2022-11-20T10:06:59.660Z,22.50
2022-11-20T10:09:37.815Z,22.32
2022-11-20T10:12:10.377Z,22.66
2022-11-20T10:15:00.280Z,22.47
2022-11-20T10:17:27.195Z,22.24
2022-11-20T10:20:18.370Z,22.10
2022-11-20T10:23:25.952Z,22.11
2022-11-20T10:26:02.585Z,22.38
2022-11-20T10:28:38.441Z,21.98
2022-11-20T10:31:11.525Z,22.21
2022-11-20T10:34:05.109Z,22.20
2022-11-20T10:36:47.347Z,22.29
2022-11-20T10:39:25.690Z,22.61
2022-11-20T10:41:54.792Z,22.50
2022-11-20T10:44:45.877Z,22.23
2022-11-20T10:47:19.874Z,22.40
2022-11-20T10:49:52.195Z,22.33
2022-11-20T10:52:52.830Z,22.15
2022-11-20T10:55:32.048Z,22.18
2022-11-20T10:58:31.056Z,22.06
2022-11-20T11:01:19.538Z,22.40
2022-11-20T11:03:47.180Z,22.61
2022-11-20T11:06:25.784Z,22.49
2022-11-20T11:08:57.845Z,22.44
2022-11-20T11:11:28.999Z,22.73
2022-11-20T11:14:14.516Z,22.50
2022-11-20T11:16:52.581Z,22.35
2022-11-20T11:19:19.574Z,22.51
2022-11-20T11:21:55.569Z,22.14
2022-11-20T11:24:43.259Z,21.90
2022-11-20T11:27:19.000Z,21.98
2022-11-20T11:29:47.540Z,21.82
2022-11-20T11:32:18.802Z,21.69
2022-11-20T11:34:45.727Z,21.95
2022-11-20T11:37:22.974Z,22.01
2022-11-20T11:40:03.834Z,22.37
2022-11-20T11:42:44.624Z,22.20
2022-11-20T11:45:18.555Z,22.02
2022-11-20T11:47:52.632Z,21.72
2022-11-20T11:50:25.865Z,21.89
2022-11-20T11:53:03.593Z,21.77
2022-11-20T11:55:59.328Z,21.80
2022-11-20T11:58:44.494Z,21.67
2022-11-20T12:01:26.759Z,21.57
2022-11-20T12:04:14.901Z,21.81
2022-11-20T12:06:46.853Z,21.90
2022-11-20T12:09:14.092Z,21.71
2022-11-20T12:12:20.031Z,21.69
2022-11-20T12:14:51.235Z,21.92
2022-11-20T12:17:18.989Z,21.93
2022-11-20T12:19:46.064Z,21.98
2022-11-20T12:22:26.707Z,21.98
2022-11-20T12:25:10.027Z,21.88
2022-11-20T12:28:12.486Z,22.01
2022-11-20T12:31:11.200Z,21.85
2022-11-20T12:34:10.666Z,22.17
2022-11-20T12:37:05.145Z,21.98
2022-11-20T12:39:36.758Z,21.53
2022-11-20T12:42:41.620Z,21.85
2022-11-20T12:45:33.126Z,21.37
2022-11-20T12:48:00.006Z,21.51
2022-11-20T12:51:15.218Z,21.83
2022-11-20T12:54:02.768Z,21.85
2022-11-20T12:56:40.370Z,22.05
2022-11-20T12:59:43.956Z,22.04
2022-11-20T13:02:49.390Z,22.02
2022-11-20T13:05:38.768Z,22.20
2022-11-20T13:08:16.460Z,22.24
2022-11-20T13:11:01.493Z,21.95
2022-11-20T13:13:37.271Z,21.87
2022-11-20T13:16:44.415Z,21.84
2022-11-20T13:19:16.792Z,21.93
2022-11-20T13:21:50.371Z,21.99
2022-11-20T13:24:20.807Z,22.10
2022-11-20T13:26:48.257Z,21.80
2022-11-20T13:29:21.404Z,21.97
2022-11-20T13:31:49.600Z,22.13
2022-11-20T13:34:28.057Z,21.98
2022-11-20T13:36:57.405Z,21.89
2022-11-20T13:39:50.588Z,21.72
2022-11-20T13:42:17.390Z,21.63
2022-11-20T13:44:51.839Z,20.70
2022-11-20T13:47:26.366Z,20.65
2022-11-20T13:49:57.733Z,20.69
2022-11-20T13:52:58.414Z,20.60
2022-11-20T13:55:39.109Z,20.64
2022-11-20T13:58:35.869Z,20.67
2022-11-20T14:01:11.184Z,20.43
2022-11-20T14:06:29.237Z,20.75
2022-11-20T14:08:57.190Z,20.76
2022-11-20T14:11:32.154Z,20.75
2022-11-20T14:14:06.212Z,20.81
2022-11-20T14:16:37.165Z,20.86
2022-11-20T14:19:27.106Z,20.64
2022-11-20T14:22:09.085Z,20.63
2022-11-20T14:24:36.125Z,20.72
2022-11-20T14:27:03.454Z,20.84
2022-11-20T14:29:36.735Z,21.05
2022-11-20T14:32:05.060Z,20.98
2022-11-20T14:34:36.782Z,20.95
2022-11-20T14:37:06.678Z,20.86
2022-11-20T14:39:39.083Z,20.72
2022-11-20T14:42:17.399Z,20.64
2022-11-20T14:44:45.673Z,20.34
2022-11-20T14:47:16.453Z,20.22
2022-11-20T14:49:44.057Z,20.33
2022-11-20T14:52:15.599Z,20.26
2022-11-20T14:54:56.407Z,20.59
2022-11-20T14:57:31.267Z,20.74
2022-11-20T15:00:24.943Z,21.11
2022-11-20T15:02:53.570Z,20.99
2022-11-20T15:05:23.730Z,21.42
2022-11-20T15:08:09.392Z,21.30
2022-11-20T15:10:36.723Z,21.13
2022-11-20T15:13:13.917Z,21.22
2022-11-20T15:15:45.860Z,21.32
2022-11-20T15:18:16.107Z,21.45
2022-11-20T15:20:44.288Z,21.38
2022-11-20T15:23:18.885Z,21.31
2022-11-20T15:25:46.973Z,21.52
2022-11-20T15:28:31.630Z,21.29
2022-11-20T15:30:58.947Z,21.01
2022-11-20T15:33:25.942Z,20.94
2022-11-20T15:35:53.014Z,20.81
2022-11-20T15:38:19.994Z,20.53
2022-11-20T15:40:47.121Z,20.61
2022-11-20T15:43:14.207Z,20.42
2022-11-20T15:45:41.098Z,20.02
2022-11-20T15:48:15.023Z,19.61
2022-11-20T15:51:08.118Z,19.56
2022-11-20T15:53:35.007Z,20.20
2022-11-20T15:56:02.462Z,20.43
2022-11-20T15:58:29.455Z,20.64
2022-11-20T16:00:57.300Z,20.42
2022-11-20T16:03:24.252Z,20.44
2022-11-20T16:05:51.144Z,20.26
2022-11-20T16:08:18.018Z,20.31
2022-11-20T16:10:45.137Z,20.27
2022-11-20T16:13:35.747Z,20.53
2022-11-20T16:16:06.548Z,20.48
2022-11-20T16:18:33.839Z,20.52
2022-11-20T16:21:00.994Z,20.35
2022-11-20T16:23:27.920Z,20.15
2022-11-20T16:25:54.933Z,19.98
2022-11-20T16:28:21.962Z,19.82
2022-11-20T16:30:48.879Z,19.87
2022-11-20T16:33:18.313Z,20.04
2022-11-20T16:35:45.303Z,20.52
2022-11-20T16:38:12.216Z,20.57
2022-11-20T16:40:39.157Z,20.39
2022-11-20T16:43:11.489Z,20.38
2022-11-20T16:45:45.462Z,20.58
2022-11-20T16:48:13.449Z,20.84
2022-11-20T16:50:54.509Z,21.20
2022-11-20T16:53:22.830Z,21.37
2022-11-20T16:55:49.671Z,21.37
2022-11-20T16:58:16.866Z,21.04
2022-11-20T17:00:49.965Z,21.25
2022-11-20T17:03:19.071Z,21.02
2022-11-20T17:05:46.129Z,20.80
2022-11-20T17:08:13.028Z,20.74
2022-11-20T17:10:39.899Z,20.93
2022-11-20T17:13:06.823Z,21.36
2022-11-20T17:15:33.991Z,21.61
2022-11-20T17:18:03.727Z,21.40
2022-11-20T17:20:31.082Z,21.40
2022-11-20T17:22:57.993Z,20.93
2022-11-20T17:25:24.878Z,21.20
2022-11-20T17:27:51.762Z,21.46
2022-11-20T17:30:18.691Z,21.41
2022-11-20T17:32:46.987Z,21.22
2022-11-20T17:35:14.165Z,19.83
2022-11-20T17:37:41.111Z,19.01
2022-11-20T17:40:08.133Z,18.85
2022-11-20T17:42:37.017Z,18.69
2022-11-20T17:45:05.138Z,17.98
2022-11-20T17:47:32.085Z,17.11
2022-11-20T17:49:59.002Z,16.62
2022-11-20T17:52:25.978Z,16.26
2022-11-20T17:54:56.064Z,15.84
2022-11-20T17:57:42.467Z,16.05
2022-11-20T18:00:11.152Z,15.96
2022-11-20T18:02:38.038Z,15.66
2022-11-20T18:05:05.382Z,15.63
2022-11-20T18:07:34.761Z,15.67
2022-11-20T18:10:05.185Z,15.59
2022-11-20T18:12:32.075Z,15.14
2022-11-20T18:14:59.034Z,14.73
2022-11-20T18:17:25.920Z,14.40
2022-11-20T18:20:14.050Z,14.31
2022-11-20T18:22:40.712Z,14.18
2022-11-20T18:25:07.950Z,14.18
2022-11-20T18:27:35.277Z,14.20
2022-11-20T18:30:02.376Z,14.10
2022-11-20T18:32:29.245Z,14.12
2022-11-20T18:34:56.139Z,14.24
2022-11-20T18:37:23.078Z,14.28
2022-11-20T18:39:50.529Z,14.16
2022-11-20T18:42:36.146Z,14.23
2022-11-20T18:45:04.520Z,14.21
2022-11-20T18:47:37.979Z,14.23
2022-11-20T18:50:07.433Z,14.30
2022-11-20T18:52:38.995Z,14.36
2022-11-20T18:55:06.955Z,14.41
2022-11-20T18:57:34.242Z,14.31
2022-11-20T19:00:07.944Z,14.38
2022-11-20T19:02:41.193Z,14.42
2022-11-20T19:05:12.770Z,14.58
2022-11-20T19:07:39.795Z,15.01
2022-11-20T19:10:07.573Z,15.26
2022-11-20T19:12:35.242Z,14.40
2022-11-20T19:15:02.133Z,14.73
2022-11-20T19:17:29.072Z,14.57
2022-11-20T19:19:56.025Z,14.89
2022-11-20T19:22:23.226Z,15.27
2022-11-20T19:24:50.182Z,15.31
2022-11-20T19:27:17.103Z,15.16
2022-11-20T19:29:44.150Z,15.03
2022-11-20T19:32:11.488Z,15.03
2022-11-20T19:34:38.396Z,15.25
2022-11-20T19:37:05.562Z,15.33
2022-11-20T19:39:32.552Z,15.45
2022-11-20T19:41:59.532Z,15.82
2022-11-20T19:44:26.400Z,15.83
2022-11-20T19:46:53.885Z,15.71
2022-11-20T19:49:21.374Z,15.45
2022-11-20T19:51:51.055Z,15.51
2022-11-20T19:54:18.035Z,15.72
2022-11-20T19:56:46.698Z,15.76
2022-11-20T19:59:14.266Z,15.36
2022-11-20T20:01:41.362Z,14.93
2022-11-20T20:04:08.328Z,14.68
2022-11-20T20:06:38.390Z,14.55
2022-11-20T20:09:12.038Z,14.78
2022-11-20T20:11:40.176Z,15.28
2022-11-20T20:14:10.867Z,15.47
2022-11-20T20:16:37.744Z,15.49
2022-11-20T20:19:05.678Z,15.52
2022-11-20T20:21:35.089Z,15.46
2022-11-20T20:24:02.723Z,15.41
2022-11-20T20:26:32.240Z,15.63
2022-11-20T20:29:00.994Z,15.82
2022-11-20T20:31:30.173Z,15.33
2022-11-20T20:33:57.262Z,15.06
2022-11-20T20:36:24.776Z,14.74
2022-11-20T20:38:56.525Z,14.55
2022-11-20T20:41:25.131Z,13.97
2022-11-20T20:44:11.287Z,14.06
2022-11-20T20:46:39.171Z,13.82
2022-11-20T20:49:07.430Z,13.64
2022-11-20T20:51:35.008Z,13.61
2022-11-20T20:54:02.334Z,13.81
2022-11-20T20:56:29.191Z,13.87
2022-11-20T20:58:56.102Z,13.99
2022-11-20T21:01:23.619Z,13.73
2022-11-20T21:03:50.593Z,13.53
2022-11-20T21:06:17.538Z,13.42
2022-11-20T21:08:44.859Z,13.92
2022-11-20T21:11:14.505Z,14.27
2022-11-20T21:13:43.465Z,14.01
2022-11-20T21:16:11.856Z,14.21
2022-11-20T21:18:39.002Z,14.44
2022-11-20T21:21:26.486Z,14.73
2022-11-20T21:23:53.969Z,14.65
2022-11-20T21:26:21.570Z,14.52
2022-11-20T21:28:50.072Z,14.72
2022-11-20T21:31:22.016Z,14.93
2022-11-20T21:33:50.865Z,14.85
2022-11-20T21:36:22.138Z,14.99
2022-11-20T21:38:51.830Z,15.06
2022-11-20T21:41:18.831Z,14.73
2022-11-20T21:43:51.526Z,14.76
2022-11-20T21:46:26.458Z,14.72
2022-11-20T21:48:53.468Z,14.55
2022-11-20T21:51:22.820Z,14.65
2022-11-20T21:53:51.342Z,14.16
2022-11-20T21:56:20.866Z,14.16
2022-11-20T21:58:49.007Z,14.08
2022-11-20T22:01:30.146Z,13.79
2022-11-20T22:04:02.222Z,13.52
2022-11-20T22:06:33.879Z,14.04
2022-11-20T22:09:01.949Z,14.16
2022-11-20T22:11:28.951Z,14.08
2022-11-20T22:14:14.262Z,14.32
2022-11-20T22:16:41.163Z,14.40
2022-11-20T22:19:08.311Z,14.31
2022-11-20T22:21:35.353Z,14.05
2022-11-20T22:24:02.633Z,14.09
2022-11-20T22:26:36.158Z,14.55
2022-11-20T22:29:06.749Z,14.62
2022-11-20T22:31:33.659Z,14.21
2022-11-20T22:34:02.701Z,13.77
2022-11-20T22:36:31.255Z,13.84
2022-11-20T22:38:58.932Z,13.80
2022-11-20T22:41:29.215Z,13.82
2022-11-20T22:44:02.684Z,14.19
2022-11-20T22:46:33.068Z,13.90
2022-11-20T22:49:02.902Z,13.78
2022-11-20T22:51:32.331Z,13.83
2022-11-20T22:53:59.844Z,13.98
2022-11-20T22:56:27.195Z,14.08
2022-11-20T22:58:54.603Z,14.24
2022-11-20T23:01:26.909Z,14.36
2022-11-20T23:03:58.960Z,14.64
2022-11-20T23:06:26.684Z,14.82
2022-11-20T23:08:54.084Z,14.82
2022-11-20T23:11:26.003Z,14.66
2022-11-20T23:13:59.048Z,14.80
2022-11-20T23:16:28.759Z,14.88
2022-11-20T23:19:01.485Z,14.76
2022-11-20T23:21:28.771Z,14.89
2022-11-20T23:23:57.591Z,14.63
2022-11-20T23:26:29.905Z,14.00
2022-11-20T23:28:58.639Z,13.54
2022-11-20T23:31:27.559Z,13.78
2022-11-20T23:33:54.693Z,13.48
2022-11-20T23:36:21.628Z,13.70
2022-11-20T23:38:48.457Z,13.98
2022-11-20T23:41:15.516Z,13.92
2022-11-20T23:43:42.488Z,14.11
2022-11-20T23:46:12.651Z,14.01
2022-11-20T23:48:45.200Z,14.00
2022-11-20T23:51:12.940Z,14.29
2022-11-20T23:53:40.114Z,14.41
2022-11-20T23:56:07.401Z,14.52
2022-11-20T23:58:36.897Z,14.51
